METAR Data
IDs: Format: Raw Decoded Include TAF

Data at: 0805 UTC 07 Dec 2021

K28J 070715Z AUTO 00000KT 1 3/4SM BR SCT022 13/13 A3005 RMK AO2
K28J 070655Z AUTO 00000KT 7SM CLR 13/12 A3005 RMK AO2
K28J 070635Z AUTO 00000KT 5SM BR CLR 13/12 A3005 RMK AO2
K28J 070615Z AUTO 00000KT 5SM BR CLR 13/12 A3005 RMK AO2
K28J 070555Z AUTO 00000KT 3/4SM BR VV005 12/12 A3006 RMK AO2
K28J 070535Z AUTO 00000KT 1SM BR CLR 12/12 A3006 RMK AO2 LTG DSNT E AND SE VIS 1/4V5
K28J 070515Z AUTO 00000KT 2 1/2SM BR FEW021 FEW033 13/12 A3007 RMK AO2 VIS 1/4V5
K28J 070455Z AUTO 00000KT 2 1/2SM BR CLR 13/12 A3008 RMK AO2
K28J 070435Z AUTO 00000KT 2 1/2SM BR CLR 13/13 A3009 RMK AO2 VIS 1/4V5
K28J 070415Z AUTO 00000KT 3SM BR CLR 14/13 A3010 RMK AO2
K28J 070355Z AUTO 00000KT 9SM CLR 14/14 A3010 RMK AO2
K28J 070335Z AUTO 00000KT 10SM CLR 15/14 A3010 RMK AO2
K28J 070315Z AUTO 30004KT 10SM CLR 16/15 A3009 RMK AO2
K28J 070255Z AUTO 28004KT 10SM CLR 16/14 A3009 RMK AO2
K28J 070235Z AUTO 23004KT 10SM CLR 16/14 A3008 RMK AO2
K28J 070215Z AUTO 23004KT 10SM CLR 17/15 A3008 RMK AO2
K28J 070155Z AUTO 22005KT 10SM CLR 17/15 A3008 RMK AO2
K28J 070135Z AUTO 24003KT 9SM CLR 16/15 A3008 RMK AO2
K28J 070115Z AUTO 00000KT 10SM CLR 16/14 A3008 RMK AO2
K28J 070055Z AUTO 00000KT 10SM CLR 16/15 A3008 RMK AO2
K28J 070035Z AUTO 00000KT 10SM SCT037 17/15 A3008 RMK AO2
K28J 070015Z AUTO 00000KT 10SM FEW036 FEW042 17/15 A3008 RMK AO2
K28J 062355Z AUTO 20003KT 10SM FEW035 SCT045 19/15 A3006 RMK AO2
K28J 062335Z AUTO 24003KT 10SM BKN044 18/15 A3007 RMK AO2
K28J 062315Z AUTO 00000KT 10SM OVC044 18/15 A3007 RMK AO2
K28J 062255Z AUTO 00000KT 10SM SCT046 19/15 A3007 RMK AO2
K28J 062235Z AUTO 00000KT 10SM CLR 20/15 A3007 RMK AO2
K28J 062215Z AUTO 29006KT 10SM CLR 21/15 A3006 RMK AO2
K28J 062155Z AUTO 29006KT 10SM BKN046 BKN055 21/15 A3005 RMK AO2
K28J 062135Z AUTO 30006KT 10SM SCT046 22/16 A3005 RMK AO2
K28J 062115Z AUTO 28004KT 10SM CLR 22/16 A3003 RMK AO2
K28J 062055Z AUTO 28004KT 10SM CLR 23/16 A3003 RMK AO2
K28J 062035Z AUTO 27004KT 10SM CLR 23/16 A3004 RMK AO2
K28J 062015Z AUTO 24004KT 10SM SCT049 23/15 A3003 RMK AO2
K28J 061955Z AUTO 25004G10KT 10SM BKN048 24/15 A3003 RMK AO2
K28J 061935Z AUTO 28008KT 9SM BKN047 25/15 A3004 RMK AO2
K28J 061915Z AUTO 28006G12KT 9SM BKN044 BKN050 24/15 A3004 RMK AO2
K28J 061855Z AUTO 23010G16KT 10SM SCT041 25/15 A3005 RMK AO2
K28J 061835Z AUTO 25011G16KT 9SM BKN041 25/15 A3005 RMK AO2
K28J 061815Z AUTO 25012KT 9SM SCT041 25/15 A3006 RMK AO2
K28J 061755Z AUTO 25007G14KT 9SM FEW035 FEW041 25/15 A3007 RMK AO2
K28J 061735Z AUTO 25007G14KT 10SM FEW033 24/16 A3007 RMK AO2
K28J 061715Z AUTO VRB05G10KT 9SM CLR 24/16 A3009 RMK AO2
K28J 061655Z AUTO VRB05KT 10SM CLR 23/16 A3010 RMK AO2
K28J 061635Z AUTO 24007KT 10SM CLR 23/16 A3011 RMK AO2
K28J 061615Z AUTO 24006G11KT 10SM CLR 22/17 A3012 RMK AO2
K28J 061555Z AUTO 22005KT 10SM CLR 22/17 A3013 RMK AO2
K28J 061535Z AUTO VRB05G10KT 10SM CLR 21/17 A3014 RMK AO2
K28J 061515Z AUTO VRB05KT 9SM CLR 20/16 A3015 RMK AO2
K28J 061455Z AUTO 00000KT 9SM CLR 19/16 A3015 RMK AO2
K28J 061435Z AUTO 00000KT 9SM CLR 17/15 A3015 RMK AO2
K28J 061415Z AUTO 00000KT 8SM CLR 15/14 A3014 RMK AO2
K28J 061355Z AUTO 00000KT 9SM CLR 14/13 A3014 RMK AO2
K28J 061335Z AUTO 00000KT 7SM CLR 12/12 A3014 RMK AO2
K28J 061315Z AUTO 00000KT 7SM CLR 10/10 A3014 RMK AO2
K28J 061255Z AUTO 00000KT 7SM CLR 09/08 A3014 RMK AO2
K28J 061235Z AUTO 00000KT 8SM CLR 08/07 A3014 RMK AO2
K28J 061215Z AUTO 00000KT 1SM BR CLR 07/07 A3014 RMK AO2 VIS 1/4V5
K28J 061155Z AUTO 00000KT 5SM BR FEW006 FEW038 08/08 A3013 RMK AO2
K28J 061135Z AUTO 00000KT 1/4SM FG BKN001 OVC006 08/08 A3013 RMK AO2
K28J 061115Z AUTO 00000KT 1/4SM FG OVC001 08/07 A3012 RMK AO2
K28J 061055Z AUTO 00000KT 1/4SM FG OVC001 08/08 A3011 RMK AO2
K28J 061035Z AUTO 00000KT 1/4SM FG OVC001 08/08 A3011 RMK AO2
K28J 060955Z AUTO 00000KT 2SM BR OVC002 08/08 A3012 RMK AO2 VIS 1 1/2V3
K28J 060935Z AUTO 00000KT 4SM BR OVC002 08/08 A3012 RMK AO2
K28J 060915Z AUTO 00000KT 1/4SM FG OVC001 08/08 A3012 RMK AO2
K28J 060855Z AUTO 00000KT 1/4SM FG OVC002 09/08 A3012 RMK AO2
K28J 060835Z AUTO 00000KT 1/2SM FG OVC002 09/08 A3012 RMK AO2
K28J 060815Z AUTO 00000KT 1/2SM FG OVC001 08/08 A3012 RMK AO2
K28J 060755Z AUTO 00000KT 1/4SM FG OVC001 09/09 A3012 RMK AO2
K28J 060735Z AUTO 00000KT M1/4SM FG OVC001 09/09 A3012 RMK AO2
K28J 060715Z AUTO 00000KT M1/4SM FG OVC001 09/09 A3012 RMK AO2
K28J 060655Z AUTO 00000KT 1/2SM BR OVC001 09/09 A3013 RMK AO2
K28J 060635Z AUTO 00000KT 1 1/4SM BR OVC001 09/09 A3013 RMK AO2 VIS 1/4V3
K28J 060615Z AUTO 00000KT 1/4SM FG OVC001 09/09 A3014 RMK AO2
K28J 060555Z AUTO 00000KT 2 1/2SM BR OVC001 10/09 A3014 RMK AO2
K28J 060535Z AUTO 00000KT 1 1/4SM BR SCT001 OVC042 10/09 A3015 RMK AO2
K28J 060515Z AUTO 00000KT 4SM BR FEW001 OVC041 10/09 A3015 RMK AO2
K28J 060455Z AUTO 00000KT 1/2SM BR BKN001 BKN034 OVC041 10/09 A3016 RMK AO2 VIS 1/4V4
K28J 060435Z AUTO 00000KT 5SM BR FEW033 BKN042 OVC048 10/10 A3016 RMK AO2
K28J 060415Z AUTO 00000KT 6SM BR FEW027 SCT033 BKN043 10/10 A3016 RMK AO2
K28J 060355Z AUTO 00000KT 2 1/2SM BR FEW032 BKN041 OVC055 10/10 A3016 RMK AO2
K28J 060335Z AUTO 00000KT 3/4SM BR BKN040 OVC050 10/10 A3016 RMK AO2 VIS M1/4V5
K28J 060315Z AUTO 00000KT 7SM SCT038 SCT044 BKN050 11/10 A3016 RMK AO2
K28J 060255Z AUTO 00000KT 9SM FEW038 SCT044 SCT050 11/10 A3016 RMK AO2
K28J 060235Z AUTO 00000KT 6SM BR FEW036 SCT045 11/11 A3016 RMK AO2
K28J 060155Z AUTO 00000KT 5SM BR FEW036 SCT045 12/12 A3015 RMK AO2
K28J 060135Z AUTO 00000KT 7SM SCT047 13/12 A3014 RMK AO2
K28J 060115Z AUTO 00000KT 10SM SCT049 13/12 A3014 RMK AO2
K28J 060035Z AUTO 00000KT 9SM SCT050 15/13 A3014 RMK AO2
K28J 060015Z AUTO 00000KT 10SM FEW050 15/13 A3014 RMK AO2
K28J 052355Z AUTO 05003KT 10SM CLR 16/14 A3013 RMK AO2
K28J 052315Z AUTO 12004KT 10SM OVC055 18/14 A3013 RMK AO2
K28J 052255Z AUTO 00000KT 10SM OVC055 18/15 A3012 RMK AO2
K28J 052215Z AUTO 00000KT 10SM OVC055 20/14 A3011 RMK AO2
K28J 052155Z AUTO 00000KT 10SM OVC050 22/13 A3011 RMK AO2
K28J 052135Z AUTO 19003KT 10SM BKN050 22/13 A3011 RMK AO2
K28J 052115Z AUTO 11003KT 10SM OVC050 22/12 A3011 RMK AO2
K28J 052055Z AUTO 00000KT 9SM BKN048 23/12 A3011 RMK AO2
K28J 052035Z AUTO 00000KT 9SM FEW050 23/12 A3011 RMK AO2
K28J 052015Z AUTO 25004KT 10SM FEW049 22/12 A3011 RMK AO2